createdAt,value
2023-12-17T00:00:55.232Z,54.93
2023-12-17T00:01:55.044Z,54.26
2023-12-17T00:03:16.946Z,55.05
2023-12-17T00:03:56.076Z,53.46
2023-12-17T00:04:55.214Z,54.99
2023-12-17T00:05:55.269Z,56.64
2023-12-17T00:06:55.040Z,55.55
2023-12-17T00:07:55.109Z,54.41
2023-12-17T00:08:54.992Z,54.96
2023-12-17T00:09:55.002Z,54.81
2023-12-17T00:10:54.951Z,54.97
2023-12-17T00:11:55.049Z,55.03
2023-12-17T00:12:54.918Z,55.89
2023-12-17T00:13:54.907Z,54.05
2023-12-17T00:14:55.018Z,53.86
2023-12-17T00:15:54.890Z,55.82
2023-12-17T00:16:54.898Z,56.50
2023-12-17T00:17:54.989Z,54.61
2023-12-17T00:18:55.158Z,57.46
2023-12-17T00:19:54.915Z,56.12
2023-12-17T00:20:54.900Z,56.68
2023-12-17T00:21:54.834Z,55.52
2023-12-17T00:22:54.830Z,53.53
2023-12-17T00:23:54.874Z,51.86
2023-12-17T00:24:54.795Z,54.65
2023-12-17T00:25:54.785Z,53.94
2023-12-17T00:26:54.803Z,53.13
2023-12-17T00:27:54.764Z,53.65
2023-12-17T00:28:54.775Z,54.88
2023-12-17T00:29:54.773Z,55.73
2023-12-17T00:30:54.759Z,54.24
2023-12-17T00:32:00.695Z,55.43
2023-12-17T00:32:55.857Z,55.68
2023-12-17T00:33:54.998Z,54.55
2023-12-17T00:34:54.691Z,52.29
2023-12-17T00:35:54.701Z,56.18
2023-12-17T00:36:54.668Z,54.11
2023-12-17T00:37:54.674Z,54.62
2023-12-17T00:38:54.661Z,53.37
2023-12-17T00:39:54.664Z,53.74
2023-12-17T00:40:54.659Z,53.97
2023-12-17T00:41:54.704Z,52.19
2023-12-17T00:42:54.625Z,54.50
2023-12-17T00:43:54.600Z,53.75
2023-12-17T00:44:54.609Z,53.52
2023-12-17T00:45:54.577Z,53.98
2023-12-17T00:46:54.594Z,54.19
2023-12-17T00:47:54.715Z,55.12
2023-12-17T00:48:54.717Z,57.00
2023-12-17T00:49:54.617Z,55.16
2023-12-17T00:50:54.547Z,55.64
2023-12-17T00:51:54.548Z,55.71
2023-12-17T00:52:54.529Z,54.12
2023-12-17T00:53:54.548Z,53.11
2023-12-17T00:54:54.514Z,53.33
2023-12-17T00:55:54.486Z,52.95
2023-12-17T00:56:54.563Z,53.72
2023-12-17T00:57:54.466Z,53.39
2023-12-17T00:58:54.456Z,52.65
2023-12-17T01:00:26.405Z,52.29
2023-12-17T01:00:56.126Z,52.09
2023-12-17T01:01:54.478Z,55.24
2023-12-17T01:02:54.486Z,53.68
2023-12-17T01:03:54.482Z,52.65
2023-12-17T01:04:54.404Z,54.65
2023-12-17T01:05:54.582Z,52.60
2023-12-17T01:06:54.423Z,55.13
2023-12-17T01:07:54.358Z,56.48
2023-12-17T01:08:54.400Z,52.74
2023-12-17T01:09:54.352Z,53.98
2023-12-17T01:10:54.353Z,57.30
2023-12-17T01:11:54.400Z,51.81
2023-12-17T01:12:54.309Z,52.26
2023-12-17T01:13:54.365Z,53.35
2023-12-17T01:14:54.452Z,53.22
2023-12-17T01:15:54.370Z,54.09
2023-12-17T01:16:54.269Z,54.71
2023-12-17T01:17:54.494Z,54.72
2023-12-17T01:18:54.475Z,53.95
2023-12-17T01:19:54.477Z,52.47
2023-12-17T01:20:54.284Z,53.30
2023-12-17T01:21:54.230Z,54.23
2023-12-17T01:22:54.252Z,52.59
2023-12-17T01:23:54.243Z,51.55
2023-12-17T01:24:54.232Z,55.73
2023-12-17T01:25:54.178Z,52.75
2023-12-17T01:26:54.224Z,52.46
2023-12-17T01:27:54.156Z,53.18
2023-12-17T01:28:54.168Z,54.88
2023-12-17T01:29:54.188Z,52.04
2023-12-17T01:30:54.177Z,54.63
2023-12-17T01:31:55.128Z,54.99
2023-12-17T01:32:54.247Z,52.29
2023-12-17T01:33:54.236Z,53.32
2023-12-17T01:34:54.098Z,51.88
2023-12-17T01:35:54.118Z,51.02
2023-12-17T01:36:54.089Z,52.43
2023-12-17T01:37:54.073Z,53.25
2023-12-17T01:38:54.128Z,52.46
2023-12-17T01:39:54.037Z,54.38
2023-12-17T01:40:54.024Z,54.22
2023-12-17T01:41:54.066Z,52.29
2023-12-17T01:42:54.110Z,55.35
2023-12-17T01:43:54.010Z,54.99
2023-12-17T01:44:54.001Z,52.97
2023-12-17T01:45:54.014Z,51.87
2023-12-17T01:46:53.964Z,52.77
2023-12-17T01:47:54.084Z,55.67
2023-12-17T01:48:54.089Z,53.16
2023-12-17T01:49:53.963Z,54.20
2023-12-17T01:50:53.937Z,52.90
2023-12-17T01:51:53.930Z,53.66
2023-12-17T01:52:53.934Z,51.24
2023-12-17T01:53:53.918Z,52.75
2023-12-17T01:54:53.890Z,52.31
2023-12-17T01:55:53.873Z,53.77
2023-12-17T01:56:53.940Z,51.59
2023-12-17T01:57:53.896Z,54.10
2023-12-17T01:58:53.855Z,53.27
2023-12-17T01:59:53.885Z,53.86
2023-12-17T02:00:53.882Z,53.04
2023-12-17T02:01:53.836Z,53.81
2023-12-17T02:02:53.884Z,56.10
2023-12-17T02:03:53.916Z,51.45
2023-12-17T02:04:53.782Z,51.07
2023-12-17T02:05:53.804Z,52.03
2023-12-17T02:06:53.877Z,51.12
2023-12-17T02:07:53.753Z,53.82
2023-12-17T02:08:54.780Z,54.45
2023-12-17T02:09:53.736Z,54.51
2023-12-17T02:10:53.762Z,53.38
2023-12-17T02:11:53.744Z,52.87
2023-12-17T02:12:53.718Z,51.67
2023-12-17T02:13:53.715Z,51.95
2023-12-17T02:14:53.696Z,54.49
2023-12-17T02:15:53.696Z,51.67
2023-12-17T02:16:53.677Z,52.67
2023-12-17T02:17:53.929Z,53.87
2023-12-17T02:18:53.883Z,51.85
2023-12-17T02:19:53.637Z,51.36
2023-12-17T02:20:53.656Z,53.52
2023-12-17T02:21:53.622Z,51.51
2023-12-17T02:22:53.644Z,53.07
2023-12-17T02:23:53.639Z,52.54
2023-12-17T02:24:53.636Z,50.94
2023-12-17T02:25:53.607Z,51.02
2023-12-17T02:26:53.602Z,51.11
2023-12-17T02:27:53.570Z,52.04
2023-12-17T02:28:53.559Z,51.69
2023-12-17T02:29:53.659Z,53.65
2023-12-17T02:30:53.575Z,52.77
2023-12-17T02:31:53.521Z,52.28
2023-12-17T02:32:53.597Z,50.49
2023-12-17T02:33:53.656Z,51.30
2023-12-17T02:34:53.575Z,53.72
2023-12-17T02:35:53.516Z,51.83
2023-12-17T02:36:53.484Z,52.49
2023-12-17T02:37:53.481Z,52.69
2023-12-17T02:38:53.488Z,52.77
2023-12-17T02:39:53.460Z,53.96
2023-12-17T02:40:53.432Z,52.33
2023-12-17T02:41:53.436Z,51.35
2023-12-17T02:42:53.416Z,53.62
2023-12-17T02:43:53.420Z,52.04
2023-12-17T02:44:53.418Z,52.19
2023-12-17T02:45:53.387Z,51.90
2023-12-17T02:46:53.385Z,54.76
2023-12-17T02:47:53.459Z,49.97
2023-12-17T02:48:53.721Z,51.58
2023-12-17T02:49:54.363Z,52.86
2023-12-17T02:50:53.428Z,53.51
2023-12-17T02:51:53.319Z,55.22
2023-12-17T02:52:53.320Z,54.28
2023-12-17T02:53:53.316Z,53.03
2023-12-17T02:54:53.293Z,54.87
2023-12-17T02:55:53.277Z,53.22
2023-12-17T02:56:53.309Z,53.42
2023-12-17T02:57:53.301Z,52.88
2023-12-17T02:58:53.244Z,51.66
2023-12-17T02:59:53.257Z,51.92
2023-12-17T03:00:53.317Z,52.54
2023-12-17T03:01:53.220Z,48.82
2023-12-17T03:02:53.297Z,50.95
2023-12-17T03:03:53.261Z,52.03
2023-12-17T03:04:53.227Z,53.08
2023-12-17T03:05:53.212Z,51.76
2023-12-17T03:06:53.190Z,49.74
2023-12-17T03:07:53.185Z,52.25
2023-12-17T03:08:53.193Z,52.08
2023-12-17T03:09:53.190Z,49.29
2023-12-17T03:10:53.133Z,53.57
2023-12-17T03:11:53.147Z,51.17
2023-12-17T03:12:53.116Z,50.91
2023-12-17T03:13:53.105Z,51.71
2023-12-17T03:14:53.094Z,51.09
2023-12-17T03:15:53.082Z,53.04
2023-12-17T03:16:53.082Z,52.64
2023-12-17T03:17:53.107Z,50.41
2023-12-17T03:18:54.066Z,52.40
2023-12-17T03:19:53.069Z,51.76
2023-12-17T03:20:53.104Z,53.28
2023-12-17T03:21:53.050Z,52.31
2023-12-17T03:22:53.017Z,53.84
2023-12-17T03:23:53.068Z,53.54
2023-12-17T03:24:53.004Z,53.02
2023-12-17T03:25:53.036Z,54.28
2023-12-17T03:26:52.994Z,54.01
2023-12-17T03:27:52.964Z,52.30
2023-12-17T03:28:52.957Z,50.10
2023-12-17T03:29:52.987Z,49.36
2023-12-17T03:30:53.039Z,51.76
2023-12-17T03:31:52.949Z,52.39
2023-12-17T03:32:53.086Z,51.35
2023-12-17T03:33:53.060Z,51.07
2023-12-17T03:34:52.934Z,49.95
2023-12-17T03:35:52.928Z,50.41
2023-12-17T03:36:52.874Z,52.30
2023-12-17T03:37:52.864Z,51.69
2023-12-17T03:38:52.880Z,52.36
2023-12-17T03:39:52.862Z,54.76
2023-12-17T03:40:52.829Z,56.59
2023-12-17T03:41:52.840Z,55.88
2023-12-17T03:42:52.826Z,51.15
2023-12-17T03:43:52.792Z,52.53
2023-12-17T03:44:52.834Z,51.21
2023-12-17T03:45:52.790Z,54.62
2023-12-17T03:46:52.762Z,52.25
2023-12-17T03:47:52.913Z,52.74
2023-12-17T03:48:52.883Z,53.65
2023-12-17T03:49:52.819Z,56.13
2023-12-17T03:50:52.755Z,53.66
2023-12-17T03:51:52.720Z,54.45
2023-12-17T03:52:52.706Z,51.67
2023-12-17T03:53:52.743Z,49.59
2023-12-17T03:54:52.707Z,52.09
2023-12-17T03:55:52.677Z,55.16
2023-12-17T03:56:52.695Z,52.55
2023-12-17T03:57:52.662Z,53.21
2023-12-17T03:58:52.662Z,53.24
2023-12-17T03:59:52.659Z,56.40
2023-12-17T04:00:52.649Z,51.79
2023-12-17T04:01:52.625Z,51.04
2023-12-17T04:02:52.664Z,53.76
2023-12-17T04:03:52.716Z,52.23
2023-12-17T04:04:52.638Z,53.29
2023-12-17T04:05:52.586Z,50.22
2023-12-17T04:06:52.561Z,53.17
2023-12-17T04:07:52.576Z,54.25
2023-12-17T04:08:54.687Z,53.67
2023-12-17T04:09:53.542Z,52.87
2023-12-17T04:10:52.538Z,52.71
2023-12-17T04:11:52.556Z,54.25
2023-12-17T04:12:52.539Z,54.48
2023-12-17T04:13:52.494Z,53.87
2023-12-17T04:14:52.519Z,54.06
2023-12-17T04:15:52.476Z,55.05
2023-12-17T04:16:52.500Z,53.06
2023-12-17T04:17:52.534Z,53.94
2023-12-17T04:18:52.639Z,54.19
2023-12-17T04:19:52.472Z,52.43
2023-12-17T04:20:52.450Z,51.75
2023-12-17T04:21:53.439Z,53.50
2023-12-17T04:22:52.416Z,54.51
2023-12-17T04:23:52.417Z,55.74
2023-12-17T04:24:52.390Z,53.11
2023-12-17T04:25:52.380Z,51.94
2023-12-17T04:26:52.406Z,54.69
2023-12-17T04:27:52.364Z,53.65
2023-12-17T04:28:52.350Z,54.71
2023-12-17T04:29:52.374Z,55.74
2023-12-17T04:30:52.395Z,56.41
2023-12-17T04:31:52.392Z,57.70
2023-12-17T04:32:52.425Z,54.00
2023-12-17T04:33:52.380Z,54.24
2023-12-17T04:34:52.289Z,53.98
2023-12-17T04:35:52.326Z,51.49
2023-12-17T04:36:52.300Z,53.04
2023-12-17T04:37:52.284Z,55.38
2023-12-17T04:38:52.339Z,56.40
2023-12-17T04:39:52.245Z,54.89
2023-12-17T04:40:52.651Z,53.86
2023-12-17T04:41:52.230Z,55.27
2023-12-17T04:42:52.220Z,56.20
2023-12-17T04:43:52.207Z,54.79
2023-12-17T04:44:52.492Z,51.69
2023-12-17T04:45:52.198Z,53.04
2023-12-17T04:46:52.160Z,55.81
2023-12-17T04:47:52.321Z,51.43
2023-12-17T04:48:52.233Z,53.97
2023-12-17T04:49:52.216Z,54.19
2023-12-17T04:50:52.149Z,54.20
2023-12-17T04:51:52.105Z,53.74
2023-12-17T04:52:52.099Z,55.66
2023-12-17T04:53:52.122Z,54.46
2023-12-17T04:54:52.098Z,53.30
2023-12-17T04:55:52.073Z,56.48
2023-12-17T04:56:52.143Z,56.22
2023-12-17T04:57:52.208Z,54.40
2023-12-17T04:58:52.074Z,54.71
2023-12-17T04:59:52.102Z,51.48
2023-12-17T05:00:52.082Z,52.78
2023-12-17T05:01:52.017Z,54.75
2023-12-17T05:02:52.138Z,56.40
2023-12-17T05:03:52.086Z,56.06
2023-12-17T05:04:52.083Z,55.68
2023-12-17T05:05:52.063Z,57.44
2023-12-17T05:06:52.143Z,56.94
2023-12-17T05:07:52.096Z,55.06
2023-12-17T05:08:51.998Z,56.60
2023-12-17T05:09:51.940Z,55.55
2023-12-17T05:10:52.159Z,54.71
2023-12-17T05:11:52.937Z,55.94
2023-12-17T05:12:51.920Z,55.15
2023-12-17T05:13:51.912Z,57.46
2023-12-17T05:14:51.901Z,54.37
2023-12-17T05:15:51.877Z,52.87
2023-12-17T05:16:51.871Z,54.32
2023-12-17T05:17:52.085Z,55.00
2023-12-17T05:18:52.034Z,54.06
2023-12-17T05:19:51.980Z,52.76
2023-12-17T05:20:51.937Z,55.38
2023-12-17T05:21:51.815Z,55.36
2023-12-17T05:22:51.814Z,55.64
2023-12-17T05:23:51.825Z,56.38
2023-12-17T05:24:51.787Z,55.82
2023-12-17T05:25:51.761Z,54.33
2023-12-17T05:26:51.802Z,55.63
2023-12-17T05:27:51.762Z,54.30
2023-12-17T05:28:51.737Z,54.83
2023-12-17T05:29:51.854Z,55.48
2023-12-17T05:30:51.857Z,55.61
2023-12-17T05:31:51.711Z,54.62
2023-12-17T05:32:51.810Z,55.90
2023-12-17T05:33:51.797Z,56.01
2023-12-17T05:34:51.674Z,56.09
2023-12-17T05:35:51.702Z,54.66
2023-12-17T05:36:51.673Z,54.29
2023-12-17T05:37:51.638Z,55.16
2023-12-17T05:38:51.661Z,55.97
2023-12-17T05:39:51.614Z,55.66
2023-12-17T05:40:51.632Z,57.66
2023-12-17T05:41:51.659Z,55.58
2023-12-17T05:42:51.603Z,53.79
2023-12-17T05:43:51.734Z,56.29
2023-12-17T05:44:51.647Z,55.55
2023-12-17T05:45:58.496Z,54.22
2023-12-17T05:46:52.589Z,54.37
2023-12-17T05:47:51.681Z,53.76
2023-12-17T05:48:51.632Z,55.94
2023-12-17T05:49:51.957Z,56.13
2023-12-17T05:50:51.642Z,54.33
2023-12-17T05:51:53.145Z,54.55
2023-12-17T05:52:51.495Z,53.51
2023-12-17T05:53:51.557Z,53.06
2023-12-17T05:54:51.502Z,54.93
2023-12-17T05:55:51.481Z,54.27
2023-12-17T05:56:51.473Z,54.38
2023-12-17T05:57:51.466Z,54.93
2023-12-17T05:58:51.422Z,54.52
2023-12-17T05:59:51.448Z,52.70
2023-12-17T06:00:51.436Z,56.06
2023-12-17T06:01:51.397Z,55.84
2023-12-17T06:02:51.402Z,54.76
2023-12-17T06:03:51.498Z,55.43
2023-12-17T06:04:51.414Z,55.02
2023-12-17T06:05:51.500Z,55.10
2023-12-17T06:06:51.449Z,53.51
2023-12-17T06:07:51.331Z,55.17
2023-12-17T06:08:51.381Z,55.93
2023-12-17T06:09:51.313Z,56.06
2023-12-17T06:10:51.317Z,55.78
2023-12-17T06:11:51.405Z,55.79
2023-12-17T06:12:51.394Z,56.68
2023-12-17T06:13:51.283Z,56.01
2023-12-17T06:14:51.338Z,54.97
2023-12-17T06:15:51.254Z,53.89
2023-12-17T06:16:51.239Z,56.90
2023-12-17T06:17:51.456Z,56.82
2023-12-17T06:18:51.564Z,54.26
2023-12-17T06:19:51.341Z,56.19
2023-12-17T06:20:51.257Z,54.49
2023-12-17T06:21:51.240Z,55.96
2023-12-17T06:22:51.216Z,55.92
2023-12-17T06:23:51.189Z,55.15
2023-12-17T06:24:51.160Z,54.10
2023-12-17T06:25:51.153Z,56.75
2023-12-17T06:26:51.166Z,57.41
2023-12-17T06:27:51.154Z,58.06
2023-12-17T06:28:51.136Z,56.58
2023-12-17T06:29:51.159Z,53.80
2023-12-17T06:30:51.148Z,54.30
2023-12-17T06:31:51.144Z,54.53
2023-12-17T06:32:51.273Z,52.94
2023-12-17T06:33:51.173Z,54.39
2023-12-17T06:34:51.064Z,55.18
2023-12-17T06:35:51.126Z,55.79
2023-12-17T06:36:51.072Z,56.14
2023-12-17T06:37:51.031Z,54.58
2023-12-17T06:38:51.102Z,54.21
2023-12-17T06:39:51.070Z,57.97
2023-12-17T06:40:51.004Z,57.10
2023-12-17T06:41:51.023Z,55.58
2023-12-17T06:42:51.082Z,53.78
2023-12-17T06:43:50.975Z,55.36
2023-12-17T06:44:50.988Z,53.64
2023-12-17T06:45:50.974Z,55.33
2023-12-17T06:46:51.200Z,53.04
2023-12-17T06:47:51.021Z,57.15
2023-12-17T06:48:51.069Z,56.33
2023-12-17T06:49:50.933Z,53.71
2023-12-17T06:50:50.954Z,56.47
2023-12-17T06:51:50.896Z,56.73
2023-12-17T06:52:51.007Z,57.34
2023-12-17T06:53:52.764Z,53.69
2023-12-17T06:54:51.866Z,54.46
2023-12-17T06:55:50.879Z,52.70
2023-12-17T06:56:50.864Z,55.29
2023-12-17T06:57:50.858Z,54.91
2023-12-17T06:58:50.839Z,56.84
2023-12-17T06:59:50.881Z,55.72
2023-12-17T07:03:09.560Z,56.95
2023-12-17T07:04:09.422Z,56.32
2023-12-17T07:05:09.448Z,56.76
2023-12-17T07:06:09.434Z,56.33
2023-12-17T07:07:10.535Z,54.85
2023-12-17T07:08:10.500Z,57.41
2023-12-17T07:09:10.536Z,56.23
2023-12-17T07:10:10.504Z,54.55
2023-12-17T07:11:10.478Z,54.16
2023-12-17T07:12:10.511Z,56.00
2023-12-17T07:13:10.463Z,55.75
2023-12-17T07:14:10.490Z,56.19
2023-12-17T07:15:10.494Z,56.51
2023-12-17T07:16:10.435Z,54.73
2023-12-17T07:17:10.417Z,56.38
2023-12-17T07:18:10.463Z,56.12
2023-12-17T07:19:10.542Z,56.64
2023-12-17T07:20:10.399Z,55.84
2023-12-17T07:21:10.495Z,56.84
2023-12-17T07:22:10.377Z,55.09
2023-12-17T07:23:10.421Z,55.71
2023-12-17T07:24:10.431Z,56.70
2023-12-17T07:25:10.417Z,57.32
2023-12-17T07:26:10.354Z,56.92
2023-12-17T07:27:10.436Z,56.19
2023-12-17T07:28:10.469Z,55.14
2023-12-17T07:29:10.376Z,56.84
2023-12-17T07:30:10.458Z,56.68
2023-12-17T07:31:10.435Z,56.35
2023-12-17T07:32:10.307Z,55.89
2023-12-17T07:33:10.469Z,55.43
2023-12-17T07:34:10.372Z,57.18
2023-12-17T07:35:10.247Z,55.99
2023-12-17T07:36:10.293Z,56.83
2023-12-17T07:37:10.243Z,56.83
2023-12-17T07:38:10.241Z,55.69
2023-12-17T07:39:10.282Z,55.34
2023-12-17T07:40:10.192Z,57.95
2023-12-17T07:41:10.194Z,57.29
2023-12-17T07:42:10.266Z,57.08
2023-12-17T07:43:10.165Z,56.85
2023-12-17T07:44:10.157Z,57.03
2023-12-17T07:45:10.217Z,56.47
2023-12-17T07:46:10.137Z,57.77
2023-12-17T07:47:10.126Z,58.16
2023-12-17T07:48:10.300Z,56.10
2023-12-17T07:49:10.204Z,57.25
2023-12-17T07:50:10.084Z,57.52
2023-12-17T07:51:10.142Z,57.57
2023-12-17T07:52:10.126Z,57.30
2023-12-17T07:53:10.103Z,55.43
2023-12-17T07:54:10.069Z,58.21
2023-12-17T07:55:10.036Z,55.42
2023-12-17T07:56:10.052Z,57.31
2023-12-17T07:57:10.049Z,56.87
2023-12-17T07:58:10.011Z,56.93
2023-12-17T07:59:09.997Z,56.88
2023-12-17T08:00:10.039Z,57.54
2023-12-17T08:01:10.035Z,57.30
2023-12-17T08:02:09.980Z,56.76
2023-12-17T08:03:10.091Z,56.40
2023-12-17T08:04:10.082Z,57.31
2023-12-17T08:05:10.055Z,57.28
2023-12-17T08:06:10.019Z,57.53
2023-12-17T08:07:09.986Z,56.58
2023-12-17T08:08:09.922Z,56.08
2023-12-17T08:09:09.944Z,57.67
2023-12-17T08:10:09.948Z,57.98
2023-12-17T08:11:09.877Z,58.45
2023-12-17T08:12:10.003Z,57.61
2023-12-17T08:13:09.852Z,58.70
2023-12-17T08:14:09.872Z,56.92
2023-12-17T08:15:09.868Z,59.16
2023-12-17T08:16:09.867Z,58.54
2023-12-17T08:17:09.821Z,58.18
2023-12-17T08:18:09.902Z,58.97
2023-12-17T08:19:09.842Z,57.29
2023-12-17T08:20:09.806Z,58.12
2023-12-17T08:21:09.828Z,56.74
2023-12-17T08:22:09.866Z,58.65
2023-12-17T08:23:09.752Z,57.49
2023-12-17T08:24:09.810Z,58.89
2023-12-17T08:25:09.751Z,57.90
2023-12-17T08:26:09.729Z,58.64
2023-12-17T08:27:09.806Z,57.27
2023-12-17T08:28:09.731Z,58.84
2023-12-17T08:29:09.720Z,58.24
2023-12-17T08:30:09.804Z,57.88
2023-12-17T08:31:09.742Z,56.89
2023-12-17T08:32:09.680Z,60.23
2023-12-17T08:33:09.812Z,59.00
2023-12-17T08:34:09.735Z,56.07
2023-12-17T08:35:09.657Z,57.14
2023-12-17T08:36:09.642Z,57.76
2023-12-17T08:37:09.635Z,57.39
2023-12-17T08:38:09.621Z,57.02
2023-12-17T08:39:09.624Z,58.38
2023-12-17T08:40:09.590Z,58.36
2023-12-17T08:41:09.574Z,57.94
2023-12-17T08:42:09.601Z,59.14
2023-12-17T08:43:09.605Z,57.81
2023-12-17T08:44:09.573Z,58.12
2023-12-17T08:45:09.596Z,58.14
2023-12-17T08:46:09.533Z,57.93
2023-12-17T08:47:09.554Z,58.62
2023-12-17T08:48:09.660Z,57.47
2023-12-17T08:49:09.623Z,59.28
2023-12-17T08:50:09.482Z,58.91
2023-12-17T08:51:09.515Z,57.92
2023-12-17T08:52:09.493Z,59.76
2023-12-17T08:53:10.450Z,59.04
2023-12-17T08:54:09.499Z,60.28
2023-12-17T08:55:09.460Z,57.87
2023-12-17T08:56:09.424Z,58.42
2023-12-17T08:57:09.608Z,56.97
2023-12-17T08:58:09.397Z,58.89
2023-12-17T08:59:09.392Z,59.16
2023-12-17T09:00:09.514Z,59.60
2023-12-17T09:01:09.393Z,57.46
2023-12-17T09:02:09.398Z,58.20
2023-12-17T09:03:09.448Z,58.71
2023-12-17T09:04:09.433Z,59.49
2023-12-17T09:05:09.338Z,60.24
2023-12-17T09:06:09.385Z,57.86
2023-12-17T09:07:09.319Z,58.37
2023-12-17T09:08:09.353Z,57.85
2023-12-17T09:09:09.309Z,57.68
2023-12-17T09:10:09.286Z,57.28
2023-12-17T09:11:09.316Z,57.20
2023-12-17T09:12:09.293Z,58.27
2023-12-17T09:13:09.296Z,59.64
2023-12-17T09:14:09.253Z,58.86
2023-12-17T09:15:09.318Z,58.26
2023-12-17T09:16:09.245Z,58.83
2023-12-17T09:17:09.218Z,57.90
2023-12-17T09:18:09.545Z,58.40
2023-12-17T09:19:09.321Z,59.23
2023-12-17T09:20:09.220Z,58.81
2023-12-17T09:21:09.199Z,59.21
2023-12-17T09:22:09.154Z,58.65
2023-12-17T09:23:09.157Z,59.58
2023-12-17T09:24:09.188Z,59.76
2023-12-17T09:25:09.191Z,58.81
2023-12-17T09:26:09.123Z,59.73
2023-12-17T09:27:09.146Z,58.34
2023-12-17T09:28:09.108Z,59.76
2023-12-17T09:29:10.111Z,59.12
2023-12-17T09:30:09.251Z,59.14
2023-12-17T09:31:09.145Z,59.44
2023-12-17T09:32:09.066Z,60.49
2023-12-17T09:33:09.256Z,59.45
2023-12-17T09:34:09.210Z,59.58
2023-12-17T09:35:09.028Z,59.09
2023-12-17T09:36:09.062Z,59.75
2023-12-17T09:37:09.011Z,58.99
2023-12-17T09:38:12.374Z,58.80
2023-12-17T09:39:10.022Z,60.24
2023-12-17T09:40:08.989Z,60.50
2023-12-17T09:41:08.960Z,59.65
2023-12-17T09:42:09.004Z,59.07
2023-12-17T09:43:08.959Z,59.30
2023-12-17T09:44:08.957Z,59.85
2023-12-17T09:45:08.952Z,60.46
2023-12-17T09:46:08.940Z,60.58
2023-12-17T09:47:08.913Z,60.32
2023-12-17T09:48:09.108Z,61.47
2023-12-17T09:49:08.953Z,59.82
2023-12-17T09:50:08.903Z,60.51
2023-12-17T09:51:08.922Z,61.92
2023-12-17T09:52:08.859Z,61.26
2023-12-17T09:53:08.890Z,61.55
2023-12-17T09:54:08.867Z,59.64
2023-12-17T09:55:08.834Z,61.04
2023-12-17T09:56:08.810Z,61.37
2023-12-17T09:57:08.883Z,61.06
2023-12-17T09:58:08.810Z,61.58
2023-12-17T09:59:08.782Z,60.95
2023-12-17T10:00:08.908Z,61.47
2023-12-17T10:01:08.950Z,60.53
2023-12-17T10:02:08.923Z,60.11
2023-12-17T10:03:08.840Z,59.20
2023-12-17T10:04:08.800Z,60.50
2023-12-17T10:05:08.777Z,59.99
2023-12-17T10:06:08.752Z,61.08
2023-12-17T10:07:08.729Z,61.88
2023-12-17T10:08:08.703Z,60.88
2023-12-17T10:09:08.820Z,61.37
2023-12-17T10:10:08.689Z,61.42
2023-12-17T10:11:08.689Z,61.77
2023-12-17T10:12:08.700Z,61.67
2023-12-17T10:13:09.654Z,60.13
2023-12-17T10:14:08.639Z,61.36
2023-12-17T10:15:08.671Z,61.15
2023-12-17T10:16:08.634Z,61.58
2023-12-17T10:17:08.616Z,62.66
2023-12-17T10:18:08.865Z,61.59
2023-12-17T10:19:08.674Z,61.68
2023-12-17T10:20:08.671Z,60.13
2023-12-17T10:21:08.620Z,62.15
2023-12-17T10:22:08.568Z,62.53
2023-12-17T10:23:08.547Z,61.55
2023-12-17T10:24:08.568Z,62.74
2023-12-17T10:25:08.557Z,62.49
2023-12-17T10:26:08.531Z,61.31
2023-12-17T10:27:08.573Z,61.97
2023-12-17T10:28:08.493Z,62.06
2023-12-17T10:29:08.505Z,62.07
2023-12-17T10:30:08.562Z,62.31
2023-12-17T10:31:08.618Z,60.66
2023-12-17T10:32:08.452Z,61.03
2023-12-17T10:33:08.527Z,62.32
2023-12-17T10:34:08.623Z,62.51
2023-12-17T10:35:08.606Z,61.76
2023-12-17T10:36:08.457Z,63.14
2023-12-17T10:37:08.414Z,61.36
2023-12-17T10:38:08.408Z,61.12
2023-12-17T10:39:08.429Z,61.45
2023-12-17T10:40:08.412Z,61.01
2023-12-17T10:41:08.370Z,60.75
2023-12-17T10:42:08.394Z,61.85
2023-12-17T10:43:08.353Z,62.11
2023-12-17T10:44:08.346Z,61.43
2023-12-17T10:45:08.358Z,60.58
2023-12-17T10:46:08.305Z,61.26
2023-12-17T10:47:08.326Z,61.65
2023-12-17T10:48:09.607Z,61.23
2023-12-17T10:49:08.463Z,61.25
2023-12-17T10:50:08.281Z,62.35
2023-12-17T10:51:08.259Z,61.95
2023-12-17T10:52:08.250Z,61.31
2023-12-17T10:53:08.270Z,63.16
2023-12-17T10:54:08.279Z,62.31
2023-12-17T10:55:08.226Z,61.86
2023-12-17T10:56:08.205Z,60.86
2023-12-17T10:57:08.237Z,61.74
2023-12-17T10:58:08.199Z,61.48
2023-12-17T10:59:08.169Z,62.19
2023-12-17T11:00:08.208Z,62.77
2023-12-17T11:01:08.187Z,63.53
2023-12-17T11:02:08.169Z,62.72
2023-12-17T11:03:08.302Z,63.74
2023-12-17T11:04:08.176Z,62.80
2023-12-17T11:05:08.147Z,62.39
2023-12-17T11:06:08.165Z,62.17
2023-12-17T11:07:08.716Z,61.97
2023-12-17T11:08:08.079Z,61.07
2023-12-17T11:09:08.101Z,62.09
2023-12-17T11:10:08.060Z,61.14
2023-12-17T11:11:08.086Z,61.77
2023-12-17T11:12:08.095Z,61.01
2023-12-17T11:13:08.038Z,61.27
2023-12-17T11:14:08.125Z,60.34
2023-12-17T11:15:08.091Z,61.57
2023-12-17T11:16:08.007Z,62.09
2023-12-17T11:17:07.998Z,61.70
2023-12-17T11:18:08.049Z,61.44
2023-12-17T11:19:08.093Z,60.35
2023-12-17T11:20:07.983Z,61.56
2023-12-17T11:21:07.980Z,62.63
2023-12-17T11:22:07.936Z,63.26
2023-12-17T11:23:07.931Z,60.89
2023-12-17T11:24:07.932Z,61.89
2023-12-17T11:25:07.964Z,62.18
2023-12-17T11:26:07.902Z,60.88
2023-12-17T11:27:07.936Z,62.01
2023-12-17T11:28:07.935Z,61.27
2023-12-17T11:29:07.868Z,62.37
2023-12-17T11:30:07.982Z,60.89
2023-12-17T11:31:08.035Z,60.30
2023-12-17T11:32:07.838Z,62.06
2023-12-17T11:33:08.021Z,60.95
2023-12-17T11:34:07.900Z,62.58
2023-12-17T11:35:07.820Z,62.19
2023-12-17T11:36:07.856Z,61.04
2023-12-17T11:37:07.797Z,62.34
2023-12-17T11:38:07.872Z,61.57
2023-12-17T11:39:07.790Z,61.17
2023-12-17T11:40:07.853Z,61.02
2023-12-17T11:41:07.742Z,62.12
2023-12-17T11:42:07.762Z,61.31
2023-12-17T11:43:07.735Z,61.38
2023-12-17T11:44:07.727Z,61.74
2023-12-17T11:45:07.777Z,61.75
2023-12-17T11:46:07.685Z,61.41
2023-12-17T11:47:08.683Z,61.70
2023-12-17T11:48:07.753Z,62.12
2023-12-17T11:49:07.741Z,61.94
2023-12-17T11:50:07.710Z,60.95
2023-12-17T11:51:07.695Z,62.10
2023-12-17T11:52:07.622Z,62.66
2023-12-17T11:53:08.614Z,61.27
2023-12-17T11:54:07.647Z,62.97
2023-12-17T11:55:07.627Z,61.50
2023-12-17T11:56:07.585Z,60.73
2023-12-17T11:57:07.594Z,61.25
2023-12-17T11:58:07.587Z,60.95
2023-12-17T11:59:09.461Z,61.20
2023-12-17T12:00:07.632Z,61.36
2023-12-17T12:01:07.837Z,60.53
2023-12-17T12:02:07.557Z,62.32
2023-12-17T12:03:07.618Z,62.37
2023-12-17T12:04:07.614Z,61.44
2023-12-17T12:05:07.544Z,60.98
2023-12-17T12:06:07.607Z,61.70
2023-12-17T12:07:07.485Z,61.85
2023-12-17T12:08:07.486Z,61.97
2023-12-17T12:09:07.529Z,62.33
2023-12-17T12:10:07.480Z,61.39
2023-12-17T12:11:09.646Z,63.11
2023-12-17T12:12:07.462Z,62.55
2023-12-17T12:13:07.430Z,63.25
2023-12-17T12:14:07.422Z,62.06
2023-12-17T12:15:07.412Z,61.78
2023-12-17T12:16:07.427Z,62.74
2023-12-17T12:17:07.446Z,62.90
2023-12-17T12:18:07.464Z,61.79
2023-12-17T12:19:10.333Z,62.86
2023-12-17T12:20:08.384Z,61.49
2023-12-17T12:21:07.397Z,62.30
2023-12-17T12:22:07.334Z,62.32
2023-12-17T12:23:07.327Z,61.94
2023-12-17T12:24:07.323Z,62.28
2023-12-17T12:25:07.294Z,62.51
2023-12-17T12:26:07.298Z,63.01
2023-12-17T12:27:07.330Z,62.20
2023-12-17T12:28:07.263Z,63.28
2023-12-17T12:29:07.259Z,62.45
2023-12-17T12:30:07.338Z,62.59
2023-12-17T12:31:07.315Z,63.03
2023-12-17T12:32:07.241Z,62.38
2023-12-17T12:33:07.276Z,62.62
2023-12-17T12:34:07.324Z,62.02
2023-12-17T12:35:07.212Z,62.91
2023-12-17T12:36:07.329Z,62.52
2023-12-17T12:37:07.179Z,61.11
2023-12-17T12:38:07.182Z,62.63
2023-12-17T12:39:07.212Z,62.02
2023-12-17T12:40:09.873Z,62.01
2023-12-17T12:41:08.173Z,62.41
2023-12-17T12:42:07.166Z,61.95
2023-12-17T12:43:07.113Z,61.30
2023-12-17T12:44:07.111Z,62.83
2023-12-17T12:45:07.196Z,62.05
2023-12-17T12:46:07.070Z,61.32
2023-12-17T12:47:07.090Z,63.20
2023-12-17T12:48:07.356Z,64.43
2023-12-17T12:49:07.176Z,64.60
2023-12-17T12:50:07.076Z,61.82
2023-12-17T12:51:07.086Z,62.57
2023-12-17T12:52:07.010Z,62.98
2023-12-17T12:53:12.327Z,62.62
2023-12-17T12:54:09.033Z,61.53
2023-12-17T12:55:07.017Z,61.82